sensor_id;sensor_type;location;lat;lon;timestamp;pressure;altitude;pressure_sealevel;temperature;humidity
46394;BME280;32099;53.588;10.176;2023-04-15T00:00:32;100611.53;;;8.73;78.46
46394;BME280;32099;53.588;10.176;2023-04-15T00:02:58;100607.25;;;8.71;78.89
46394;BME280;32099;53.588;10.176;2023-04-15T00:05:23;100608.66;;;8.67;79.42
46394;BME280;32099;53.588;10.176;2023-04-15T00:07:48;100599.97;;;8.63;79.46
46394;BME280;32099;53.588;10.176;2023-04-15T00:10:14;100602.03;;;8.61;79.26
46394;BME280;32099;53.588;10.176;2023-04-15T00:12:39;100593.53;;;8.64;79.73
46394;BME280;32099;53.588;10.176;2023-04-15T00:15:05;100594.53;;;8.63;80.65
46394;BME280;32099;53.588;10.176;2023-04-15T00:17:32;100602.19;;;8.59;79.79
46394;BME280;32099;53.588;10.176;2023-04-15T00:19:57;100594.41;;;8.56;80.52
46394;BME280;32099;53.588;10.176;2023-04-15T00:22:24;100598.97;;;8.56;79.49
46394;BME280;32099;53.588;10.176;2023-04-15T00:24:51;100593.38;;;8.57;80.09
46394;BME280;32099;53.588;10.176;2023-04-15T00:27:17;100589.28;;;8.61;79.81
46394;BME280;32099;53.588;10.176;2023-04-15T00:29:42;100587.59;;;8.60;79.75
46394;BME280;32099;53.588;10.176;2023-04-15T00:32:08;100587.59;;;8.60;79.93
46394;BME280;32099;53.588;10.176;2023-04-15T00:34:33;100589.47;;;8.60;80.06
46394;BME280;32099;53.588;10.176;2023-04-15T00:36:58;100584.19;;;8.58;79.45
46394;BME280;32099;53.588;10.176;2023-04-15T00:39:23;100588.94;;;8.64;79.58
46394;BME280;32099;53.588;10.176;2023-04-15T00:41:49;100593.38;;;8.66;79.85
46394;BME280;32099;53.588;10.176;2023-04-15T00:44:14;100587.25;;;8.63;80.93
46394;BME280;32099;53.588;10.176;2023-04-15T00:46:39;100591.66;;;8.64;79.80
46394;BME280;32099;53.588;10.176;2023-04-15T00:49:05;100586.03;;;8.66;79.81
46394;BME280;32099;53.588;10.176;2023-04-15T00:51:31;100593.53;;;8.64;80.17
46394;BME280;32099;53.588;10.176;2023-04-15T00:53:59;100588.28;;;8.62;80.51
46394;BME280;32099;53.588;10.176;2023-04-15T00:56:26;100591.16;;;8.61;80.19
46394;BME280;32099;53.588;10.176;2023-04-15T00:58:53;100593.69;;;8.62;79.81
46394;BME280;32099;53.588;10.176;2023-04-15T01:01:21;100598.97;;;8.64;81.58
46394;BME280;32099;53.588;10.176;2023-04-15T01:03:49;100588.13;;;8.56;80.71
46394;BME280;32099;53.588;10.176;2023-04-15T01:06:15;100589.31;;;8.53;80.57
46394;BME280;32099;53.588;10.176;2023-04-15T01:08:41;100587.28;;;8.55;80.77
46394;BME280;32099;53.588;10.176;2023-04-15T01:11:07;100582.69;;;8.56;81.41
46394;BME280;32099;53.588;10.176;2023-04-15T01:13:33;100584.56;;;8.55;82.06
46394;BME280;32099;53.588;10.176;2023-04-15T01:16:00;100578.44;;;8.53;82.25
46394;BME280;32099;53.588;10.176;2023-04-15T01:18:27;100579.13;;;8.55;81.56
46394;BME280;32099;53.588;10.176;2023-04-15T01:20:53;100577.25;;;8.56;81.78
46394;BME280;32099;53.588;10.176;2023-04-15T01:23:19;100575.38;;;8.56;81.63
46394;BME280;32099;53.588;10.176;2023-04-15T01:25:46;100575.88;;;8.60;82.49
46394;BME280;32099;53.588;10.176;2023-04-15T01:28:13;100568.75;;;8.59;81.33
46394;BME280;32099;53.588;10.176;2023-04-15T01:30:38;100565.69;;;8.62;81.93
46394;BME280;32099;53.588;10.176;2023-04-15T01:33:03;100560.25;;;8.62;81.99
46394;BME280;32099;53.588;10.176;2023-04-15T01:35:29;100567.34;;;8.63;80.97
46394;BME280;32099;53.588;10.176;2023-04-15T01:37:54;100566.34;;;8.64;81.57
46394;BME280;32099;53.588;10.176;2023-04-15T01:40:29;100561.91;;;8.63;82.24
46394;BME280;32099;53.588;10.176;2023-04-15T01:42:54;100555.31;;;8.66;81.34
46394;BME280;32099;53.588;10.176;2023-04-15T01:45:20;100549.88;;;8.66;81.53
46394;BME280;32099;53.588;10.176;2023-04-15T01:47:45;100549.50;;;8.69;80.88
46394;BME280;32099;53.588;10.176;2023-04-15T01:50:10;100551.88;;;8.72;80.81
46394;BME280;32099;53.588;10.176;2023-04-15T01:52:35;100552.75;;;8.72;81.73
46394;BME280;32099;53.588;10.176;2023-04-15T01:55:01;100549.34;;;8.70;80.79
46394;BME280;32099;53.588;10.176;2023-04-15T01:57:26;100548.13;;;8.73;80.98
46394;BME280;32099;53.588;10.176;2023-04-15T01:59:52;100556.78;;;8.76;81.13
46394;BME280;32099;53.588;10.176;2023-04-15T02:02:17;100552.88;;;8.79;80.97
46394;BME280;32099;53.588;10.176;2023-04-15T02:04:42;100547.25;;;8.80;82.57
46394;BME280;32099;53.588;10.176;2023-04-15T02:07:08;100543.88;;;8.78;82.08
46394;BME280;32099;53.588;10.176;2023-04-15T02:09:33;100538.44;;;8.78;80.91
46394;BME280;32099;53.588;10.176;2023-04-15T02:11:59;100533.00;;;8.78;82.08
46394;BME280;32099;53.588;10.176;2023-04-15T02:14:24;100536.56;;;8.79;82.73
46394;BME280;32099;53.588;10.176;2023-04-15T02:16:50;100532.81;;;8.80;83.03
46394;BME280;32099;53.588;10.176;2023-04-15T02:19:15;100530.28;;;8.78;82.17
46394;BME280;32099;53.588;10.176;2023-04-15T02:21:40;100528.09;;;8.74;82.63
46394;BME280;32099;53.588;10.176;2023-04-15T02:24:06;100524.00;;;8.70;82.91
46394;BME280;32099;53.588;10.176;2023-04-15T02:26:31;100524.38;;;8.67;82.89
46394;BME280;32099;53.588;10.176;2023-04-15T02:28:57;100535.25;;;8.67;82.64
46394;BME280;32099;53.588;10.176;2023-04-15T02:31:23;100532.16;;;8.70;82.34
46394;BME280;32099;53.588;10.176;2023-04-15T02:33:49;100537.25;;;8.73;82.67
46394;BME280;32099;53.588;10.176;2023-04-15T02:36:14;100523.00;;;8.71;82.02
46394;BME280;32099;53.588;10.176;2023-04-15T02:38:40;100530.28;;;8.78;82.97
46394;BME280;32099;53.588;10.176;2023-04-15T02:41:07;100535.53;;;8.80;82.12
46394;BME280;32099;53.588;10.176;2023-04-15T02:43:35;100537.22;;;8.81;82.68
46394;BME280;32099;53.588;10.176;2023-04-15T02:46:00;100537.22;;;8.81;81.83
46394;BME280;32099;53.588;10.176;2023-04-15T02:48:26;100534.50;;;8.81;82.23
46394;BME280;32099;53.588;10.176;2023-04-15T02:50:51;100529.75;;;8.83;82.54
46394;BME280;32099;53.588;10.176;2023-04-15T02:53:16;100529.94;;;8.82;81.90
46394;BME280;32099;53.588;10.176;2023-04-15T02:55:42;100536.38;;;8.80;83.21
46394;BME280;32099;53.588;10.176;2023-04-15T02:58:07;100535.38;;;8.82;82.61
46394;BME280;32099;53.588;10.176;2023-04-15T03:00:32;100538.91;;;8.82;85.20
46394;BME280;32099;53.588;10.176;2023-04-15T03:03:00;100536.19;;;8.82;83.06
46394;BME280;32099;53.588;10.176;2023-04-15T03:05:27;100535.53;;;8.80;83.12
46394;BME280;32099;53.588;10.176;2023-04-15T03:07:52;100534.50;;;8.81;84.06
46394;BME280;32099;53.588;10.176;2023-04-15T03:10:18;100537.22;;;8.81;82.46
46394;BME280;32099;53.588;10.176;2023-04-15T03:12:43;100528.22;;;8.80;84.09
46394;BME280;32099;53.588;10.176;2023-04-15T03:15:09;100535.38;;;8.82;83.77
46394;BME280;32099;53.588;10.176;2023-04-15T03:17:34;100529.25;;;8.79;83.71
46394;BME280;32099;53.588;10.176;2023-04-15T03:20:00;100531.97;;;8.79;85.20
46394;BME280;32099;53.588;10.176;2023-04-15T03:22:27;100523.13;;;8.77;83.04
46394;BME280;32099;53.588;10.176;2023-04-15T03:24:53;100521.94;;;8.80;84.58
46394;BME280;32099;53.588;10.176;2023-04-15T03:27:18;100517.34;;;8.80;83.27
46394;BME280;32099;53.588;10.176;2023-04-15T03:29:43;100518.88;;;8.83;83.37
46394;BME280;32099;53.588;10.176;2023-04-15T03:32:09;100523.47;;;8.83;84.55
46394;BME280;32099;53.588;10.176;2023-04-15T03:34:34;100523.81;;;8.79;84.39
46394;BME280;32099;53.588;10.176;2023-04-15T03:37:00;100525.50;;;8.80;83.38
46394;BME280;32099;53.588;10.176;2023-04-15T03:39:25;100519.72;;;8.84;83.73
46394;BME280;32099;53.588;10.176;2023-04-15T03:41:51;100517.84;;;8.84;83.32
46394;BME280;32099;53.588;10.176;2023-04-15T03:44:16;100525.66;;;8.87;83.77
46394;BME280;32099;53.588;10.176;2023-04-15T03:46:41;100529.22;;;8.88;84.74
46394;BME280;32099;53.588;10.176;2023-04-15T03:49:06;100535.66;;;8.87;82.87
46394;BME280;32099;53.588;10.176;2023-04-15T03:51:32;100523.75;;;8.88;84.25
46394;BME280;32099;53.588;10.176;2023-04-15T03:53:58;100532.94;;;8.87;85.04
46394;BME280;32099;53.588;10.176;2023-04-15T03:56:23;100535.38;;;8.82;84.28
46394;BME280;32099;53.588;10.176;2023-04-15T03:58:49;100527.03;;;8.83;83.67
46394;BME280;32099;53.588;10.176;2023-04-15T04:01:14;100529.41;;;8.86;83.54
46394;BME280;32099;53.588;10.176;2023-04-15T04:03:40;100527.50;;;8.87;83.85
46394;BME280;32099;53.588;10.176;2023-04-15T04:06:05;100530.22;;;8.87;84.60
46394;BME280;32099;53.588;10.176;2023-04-15T04:08:31;100541.09;;;8.87;84.03
46394;BME280;32099;53.588;10.176;2023-04-15T04:10:57;100540.47;;;8.85;86.86
46394;BME280;32099;53.588;10.176;2023-04-15T04:13:22;100536.19;;;8.82;84.79
46394;BME280;32099;53.588;10.176;2023-04-15T04:15:47;100542.50;;;8.83;85.15
46394;BME280;32099;53.588;10.176;2023-04-15T04:18:13;100536.03;;;8.84;85.17
46394;BME280;32099;53.588;10.176;2023-04-15T04:20:38;100537.91;;;8.83;85.30
46394;BME280;32099;53.588;10.176;2023-04-15T04:23:03;100542.31;;;8.84;85.13
46394;BME280;32099;53.588;10.176;2023-04-15T04:25:29;100544.19;;;8.84;84.43
46394;BME280;32099;53.588;10.176;2023-04-15T04:27:54;100542.50;;;8.83;84.89
46394;BME280;32099;53.588;10.176;2023-04-15T04:30:19;100537.91;;;8.83;86.30
46394;BME280;32099;53.588;10.176;2023-04-15T04:32:44;100531.63;;;8.83;85.27
46394;BME280;32099;53.588;10.176;2023-04-15T04:35:10;100536.88;;;8.84;84.29
46394;BME280;32099;53.588;10.176;2023-04-15T04:37:35;100536.53;;;8.87;85.18
46394;BME280;32099;53.588;10.176;2023-04-15T04:40:01;100539.06;;;8.89;84.91
46394;BME280;32099;53.588;10.176;2023-04-15T04:42:26;100529.88;;;8.90;84.93
46394;BME280;32099;53.588;10.176;2023-04-15T04:44:51;100535.50;;;8.88;84.82
46394;BME280;32099;53.588;10.176;2023-04-15T04:47:17;100535.66;;;8.87;85.98
46394;BME280;32099;53.588;10.176;2023-04-15T04:49:43;100528.56;;;8.86;85.49
46394;BME280;32099;53.588;10.176;2023-04-15T04:52:09;100531.28;;;8.86;87.31
46394;BME280;32099;53.588;10.176;2023-04-15T04:54:34;100532.31;;;8.85;85.83
46394;BME280;32099;53.588;10.176;2023-04-15T04:56:59;100529.41;;;8.86;86.74
46394;BME280;32099;53.588;10.176;2023-04-15T04:59:25;100530.06;;;8.88;85.17
46394;BME280;32099;53.588;10.176;2023-04-15T05:01:50;100533.63;;;8.89;85.77
46394;BME280;32099;53.588;10.176;2023-04-15T05:04:17;100541.63;;;8.90;86.07
46394;BME280;32099;53.588;10.176;2023-04-15T05:06:42;100539.94;;;8.89;87.10
46394;BME280;32099;53.588;10.176;2023-04-15T05:09:08;100541.25;;;8.93;85.10
46394;BME280;32099;53.588;10.176;2023-04-15T05:11:33;100542.41;;;8.99;85.66
46394;BME280;32099;53.588;10.176;2023-04-15T05:13:58;100548.38;;;9.03;85.00
46394;BME280;32099;53.588;10.176;2023-04-15T05:16:25;100543.75;;;9.03;86.14
46394;BME280;32099;53.588;10.176;2023-04-15T05:18:50;100542.72;;;9.04;85.78
46394;BME280;32099;53.588;10.176;2023-04-15T05:21:16;100544.78;;;9.02;85.74
46394;BME280;32099;53.588;10.176;2023-04-15T05:23:41;100546.81;;;9.00;86.00
46394;BME280;32099;53.588;10.176;2023-04-15T05:26:06;100542.06;;;9.02;86.54
46394;BME280;32099;53.588;10.176;2023-04-15T05:28:32;100547.16;;;9.05;85.44
46394;BME280;32099;53.588;10.176;2023-04-15T05:30:57;100540.00;;;9.04;86.34
46394;BME280;32099;53.588;10.176;2023-04-15T05:33:22;100548.53;;;9.01;87.55
46394;BME280;32099;53.588;10.176;2023-04-15T05:35:48;100542.94;;;8.94;86.92
46394;BME280;32099;53.588;10.176;2023-04-15T05:38:13;100540.22;;;8.94;88.37
46394;BME280;32099;53.588;10.176;2023-04-15T05:40:38;100549.72;;;8.99;85.96
46394;BME280;32099;53.588;10.176;2023-04-15T05:43:04;100555.47;;;9.04;87.37
46394;BME280;32099;53.588;10.176;2023-04-15T05:45:29;100559.72;;;9.06;88.07
46394;BME280;32099;53.588;10.176;2023-04-15T05:47:54;100554.28;;;9.06;86.65
46394;BME280;32099;53.588;10.176;2023-04-15T05:50:20;100555.31;;;9.05;87.91
46394;BME280;32099;53.588;10.176;2023-04-15T05:52:45;100556.34;;;9.04;88.22
46394;BME280;32099;53.588;10.176;2023-04-15T05:55:11;100562.97;;;9.02;89.17
46394;BME280;32099;53.588;10.176;2023-04-15T05:57:36;100562.31;;;9.00;86.77
46394;BME280;32099;53.588;10.176;2023-04-15T06:00:02;100566.72;;;9.01;89.57
46394;BME280;32099;53.588;10.176;2023-04-15T06:02:29;100568.03;;;9.05;87.31
46394;BME280;32099;53.588;10.176;2023-04-15T06:04:55;100564.16;;;9.07;87.15
46394;BME280;32099;53.588;10.176;2023-04-15T06:07:21;100566.34;;;9.12;86.03
46394;BME280;32099;53.588;10.176;2023-04-15T06:09:46;100574.13;;;9.15;86.56
46394;BME280;32099;53.588;10.176;2023-04-15T06:12:12;100580.22;;;9.17;85.91
46394;BME280;32099;53.588;10.176;2023-04-15T06:14:37;100583.63;;;9.19;87.60
46394;BME280;32099;53.588;10.176;2023-04-15T06:17:03;100580.91;;;9.19;86.08
46394;BME280;32099;53.588;10.176;2023-04-15T06:19:28;100584.09;;;9.23;87.45
46394;BME280;32099;53.588;10.176;2023-04-15T06:21:54;100589.75;;;9.21;87.30
46394;BME280;32099;53.588;10.176;2023-04-15T06:24:19;100589.94;;;9.20;87.09
46394;BME280;32099;53.588;10.176;2023-04-15T06:26:44;100588.56;;;9.16;89.24
46394;BME280;32099;53.588;10.176;2023-04-15T06:29:10;100594.38;;;9.13;88.94
46394;BME280;32099;53.588;10.176;2023-04-15T06:31:35;100581.13;;;9.09;88.08
46394;BME280;32099;53.588;10.176;2023-04-15T06:34:01;100591.66;;;9.13;87.04
46394;BME280;32099;53.588;10.176;2023-04-15T06:36:26;100594.03;;;9.16;88.24
46394;BME280;32099;53.588;10.176;2023-04-15T06:38:51;100593.00;;;9.17;86.78
46394;BME280;32099;53.588;10.176;2023-04-15T06:41:17;100598.94;;;9.20;87.63
46394;BME280;32099;53.588;10.176;2023-04-15T06:43:42;100604.38;;;9.20;87.23
46394;BME280;32099;53.588;10.176;2023-04-15T06:46:08;100610.16;;;9.17;89.80
46394;BME280;32099;53.588;10.176;2023-04-15T06:48:34;100601.50;;;9.14;86.70
46394;BME280;32099;53.588;10.176;2023-04-15T06:51:00;100609.63;;;9.22;88.03
46394;BME280;32099;53.588;10.176;2023-04-15T06:53:25;100609.28;;;9.25;87.99
46394;BME280;32099;53.588;10.176;2023-04-15T06:55:53;100614.38;;;9.28;86.99
46394;BME280;32099;53.588;10.176;2023-04-15T06:58:19;100614.53;;;9.26;87.24
46394;BME280;32099;53.588;10.176;2023-04-15T07:00:44;100607.56;;;9.24;87.82
46394;BME280;32099;53.588;10.176;2023-04-15T07:03:10;100609.47;;;9.23;86.37
46394;BME280;32099;53.588;10.176;2023-04-15T07:05:36;100617.63;;;9.23;88.91
46394;BME280;32099;53.588;10.176;2023-04-15T07:08:02;100609.28;;;9.25;86.66
46394;BME280;32099;53.588;10.176;2023-04-15T07:10:27;100610.63;;;9.29;86.25
46394;BME280;32099;53.588;10.176;2023-04-15T07:12:53;100608.88;;;9.36;86.12
46394;BME280;32099;53.588;10.176;2023-04-15T07:15:18;100607.50;;;9.40;86.24
46394;BME280;32099;53.588;10.176;2023-04-15T07:17:44;100606.47;;;9.41;87.74
46394;BME280;32099;53.588;10.176;2023-04-15T07:20:09;100612.28;;;9.38;86.70
46394;BME280;32099;53.588;10.176;2023-04-15T07:22:35;100611.41;;;9.38;87.31
46394;BME280;32099;53.588;10.176;2023-04-15T07:25:00;100620.63;;;9.37;86.42
46394;BME280;32099;53.588;10.176;2023-04-15T07:27:25;100632.00;;;9.40;86.15
46394;BME280;32099;53.588;10.176;2023-04-15T07:29:51;100620.25;;;9.40;86.91
46394;BME280;32099;53.588;10.176;2023-04-15T07:32:17;100632.00;;;9.40;87.30
46394;BME280;32099;53.588;10.176;2023-04-15T07:34:42;100634.53;;;9.42;86.23
46394;BME280;32099;53.588;10.176;2023-04-15T07:37:08;100638.41;;;9.48;87.04
46394;BME280;32099;53.588;10.176;2023-04-15T07:39:33;100634.00;;;9.47;86.32
46394;BME280;32099;53.588;10.176;2023-04-15T07:41:58;100632.13;;;9.47;87.26
46394;BME280;32099;53.588;10.176;2023-04-15T07:44:24;100634.84;;;9.47;86.48
46394;BME280;32099;53.588;10.176;2023-04-15T07:46:50;100645.19;;;9.52;86.68
46394;BME280;32099;53.588;10.176;2023-04-15T07:49:16;100651.31;;;9.54;85.84
46394;BME280;32099;53.588;10.176;2023-04-15T07:51:43;100649.75;;;9.60;86.32
46394;BME280;32099;53.588;10.176;2023-04-15T07:54:08;100645.16;;;9.60;86.73
46394;BME280;32099;53.588;10.176;2023-04-15T07:56:33;100646.16;;;9.59;88.45
46394;BME280;32099;53.588;10.176;2023-04-15T07:58:59;100643.63;;;9.57;87.16
46394;BME280;32099;53.588;10.176;2023-04-15T08:01:26;100649.25;;;9.56;86.29
46394;BME280;32099;53.588;10.176;2023-04-15T08:03:51;100646.66;;;9.63;85.63
46394;BME280;32099;53.588;10.176;2023-04-15T08:06:17;100654.81;;;9.63;86.20
46394;BME280;32099;53.588;10.176;2023-04-15T08:08:42;100658.69;;;9.68;86.02
46394;BME280;32099;53.588;10.176;2023-04-15T08:11:07;100660.88;;;9.73;86.18
46394;BME280;32099;53.588;10.176;2023-04-15T08:13:33;100666.84;;;9.77;86.18
46394;BME280;32099;53.588;10.176;2023-04-15T08:16:12;100671.75;;;9.81;86.52
46394;BME280;32099;53.588;10.176;2023-04-15T08:18:45;100666.84;;;9.77;86.17
46394;BME280;32099;53.588;10.176;2023-04-15T08:21:11;100680.28;;;9.78;85.82
46394;BME280;32099;53.588;10.176;2023-04-15T08:23:37;100672.41;;;9.83;87.15
46394;BME280;32099;53.588;10.176;2023-04-15T08:26:03;100673.56;;;9.89;85.64
46394;BME280;32099;53.588;10.176;2023-04-15T08:28:28;100676.59;;;9.94;86.24
46394;BME280;32099;53.588;10.176;2023-04-15T08:30:53;100677.94;;;9.98;85.55
46394;BME280;32099;53.588;10.176;2023-04-15T08:33:19;100682.66;;;10.04;84.90
46394;BME280;32099;53.588;10.176;2023-04-15T08:35:44;100678.53;;;10.09;85.99
46394;BME280;32099;53.588;10.176;2023-04-15T08:38:10;100683.44;;;10.13;84.95
46394;BME280;32099;53.588;10.176;2023-04-15T08:40:39;100684.13;;;10.15;85.96
46394;BME280;32099;53.588;10.176;2023-04-15T08:43:10;100676.78;;;10.16;85.20
46394;BME280;32099;53.588;10.176;2023-04-15T08:45:39;100683.38;;;10.22;85.12
46394;BME280;32099;53.588;10.176;2023-04-15T08:48:06;100686.97;;;10.22;85.44
46394;BME280;32099;53.588;10.176;2023-04-15T08:50:33;100687.06;;;10.29;85.25
46394;BME280;32099;53.588;10.176;2023-04-15T08:52:59;100690.94;;;10.34;85.78
46394;BME280;32099;53.588;10.176;2023-04-15T08:55:29;100683.41;;;10.37;86.11
46394;BME280;32099;53.588;10.176;2023-04-15T08:58:00;100685.63;;;10.41;85.00
46394;BME280;32099;53.588;10.176;2023-04-15T09:00:26;100678.41;;;10.48;84.62
46394;BME280;32099;53.588;10.176;2023-04-15T09:02:53;100695.06;;;10.54;85.67
46394;BME280;32099;53.588;10.176;2023-04-15T09:05:20;100689.25;;;10.57;84.85
46394;BME280;32099;53.588;10.176;2023-04-15T09:07:45;100693.97;;;10.63;85.86
46394;BME280;32099;53.588;10.176;2023-04-15T09:10:11;100695.13;;;10.69;85.81
46394;BME280;32099;53.588;10.176;2023-04-15T09:12:37;100703.41;;;10.75;85.29
46394;BME280;32099;53.588;10.176;2023-04-15T09:15:02;100692.31;;;10.92;84.34
46394;BME280;32099;53.588;10.176;2023-04-15T09:17:31;100691.84;;;11.18;84.02
46394;BME280;32099;53.588;10.176;2023-04-15T09:20:09;100685.50;;;11.48;83.28
46394;BME280;32099;53.588;10.176;2023-04-15T09:22:39;100697.44;;;11.77;82.60
46394;BME280;32099;53.588;10.176;2023-04-15T09:30:18;100697.81;;;12.32;80.85
46394;BME280;32099;53.588;10.176;2023-04-15T09:32:48;100701.59;;;12.53;80.46
46394;BME280;32099;53.588;10.176;2023-04-15T09:35:15;100695.22;;;12.74;80.02
46394;BME280;32099;53.588;10.176;2023-04-15T09:37:40;100698.94;;;12.94;78.51
46394;BME280;32099;53.588;10.176;2023-04-15T09:40:05;100706.03;;;13.10;78.29
46394;BME280;32099;53.588;10.176;2023-04-15T09:42:32;100697.47;;;13.27;77.84
46394;BME280;32099;53.588;10.176;2023-04-15T09:45:07;100698.88;;;13.45;76.85
46394;BME280;32099;53.588;10.176;2023-04-15T09:47:36;100699.97;;;13.50;75.87
46394;BME280;32099;53.588;10.176;2023-04-15T09:50:01;100704.06;;;13.75;77.48
46394;BME280;32099;53.588;10.176;2023-04-15T09:52:27;100706.06;;;14.14;74.76
46394;BME280;32099;53.588;10.176;2023-04-15T09:54:53;100713.28;;;14.35;74.74
46394;BME280;32099;53.588;10.176;2023-04-15T09:57:22;100713.03;;;14.30;72.03
46394;BME280;32099;53.588;10.176;2023-04-15T10:19:10;100728.00;;;14.21;73.71
46394;BME280;32099;53.588;10.176;2023-04-15T10:21:36;100734.16;;;14.37;74.04
46394;BME280;32099;53.588;10.176;2023-04-15T10:24:01;100731.00;;;14.46;72.75
46394;BME280;32099;53.588;10.176;2023-04-15T10:26:27;100738.81;;;14.56;71.66
46394;BME280;32099;53.588;10.176;2023-04-15T10:28:53;100726.38;;;14.54;69.74
46394;BME280;32099;53.588;10.176;2023-04-15T10:31:18;100733.53;;;14.61;72.68
46394;BME280;32099;53.588;10.176;2023-04-15T10:33:44;100736.31;;;14.68;71.13
46394;BME280;32099;53.588;10.176;2023-04-15T10:36:12;100735.44;;;14.61;71.23
46394;BME280;32099;53.588;10.176;2023-04-15T10:38:39;100739.25;;;14.60;71.14
46394;BME280;32099;53.588;10.176;2023-04-15T10:41:14;100739.88;;;14.62;70.89
46394;BME280;32099;53.588;10.176;2023-04-15T10:49:08;100746.84;;;14.64;70.09
46394;BME280;32099;53.588;10.176;2023-04-15T10:51:36;100746.66;;;14.59;68.88
46394;BME280;32099;53.588;10.176;2023-04-15T10:54:07;100751.06;;;14.47;69.57
46394;BME280;32099;53.588;10.176;2023-04-15T10:56:37;100747.88;;;14.37;69.69
46394;BME280;32099;53.588;10.176;2023-04-15T10:59:03;100755.69;;;14.26;67.99
46394;BME280;32099;53.588;10.176;2023-04-15T11:07:32;100761.13;;;14.19;70.20
46394;BME280;32099;53.588;10.176;2023-04-15T11:10:49;100772.28;;;14.18;69.50
46394;BME280;32099;53.588;10.176;2023-04-15T11:13:06;100772.50;;;14.16;70.26
46394;BME280;32099;53.588;10.176;2023-04-15T11:15:41;100777.56;;;14.13;70.86
46394;BME280;32099;53.588;10.176;2023-04-15T11:20:43;100774.03;;;14.32;70.38
46394;BME280;32099;53.588;10.176;2023-04-15T11:23:11;100777.63;;;14.40;68.35
46394;BME280;32099;53.588;10.176;2023-04-15T11:25:37;100779.31;;;14.41;68.40
46394;BME280;32099;53.588;10.176;2023-04-15T11:28:02;100776.41;;;14.49;68.94
46394;BME280;32099;53.588;10.176;2023-04-15T11:30:30;100771.13;;;14.61;69.37
46394;BME280;32099;53.588;10.176;2023-04-15T11:32:58;100779.41;;;14.81;67.77
46394;BME280;32099;53.588;10.176;2023-04-15T11:35:24;100782.34;;;14.93;68.80
46394;BME280;32099;53.588;10.176;2023-04-15T11:37:50;100774.13;;;15.00;65.56
46394;BME280;32099;53.588;10.176;2023-04-15T11:40:16;100782.38;;;15.06;66.34
46394;BME280;32099;53.588;10.176;2023-04-15T11:42:46;100788.06;;;15.11;67.39
46394;BME280;32099;53.588;10.176;2023-04-15T11:48:21;100791.84;;;15.31;65.22
46394;BME280;32099;53.588;10.176;2023-04-15T11:50:59;100787.19;;;15.31;64.97
46394;BME280;32099;53.588;10.176;2023-04-15T11:56:10;100805.38;;;15.12;65.97
46394;BME280;32099;53.588;10.176;2023-04-15T11:58:45;100813.63;;;15.05;64.63
46394;BME280;32099;53.588;10.176;2023-04-15T12:01:10;100811.94;;;15.04;67.51
46394;BME280;32099;53.588;10.176;2023-04-15T12:11:37;100818.47;;;14.96;67.11
46394;BME280;32099;53.588;10.176;2023-04-15T12:14:18;100825.25;;;15.01;67.21
46394;BME280;32099;53.588;10.176;2023-04-15T12:16:58;100826.50;;;14.98;66.69
46394;BME280;32099;53.588;10.176;2023-04-15T12:19:31;100823.75;;;14.91;66.29
46394;BME280;32099;53.588;10.176;2023-04-15T12:22:05;100825.00;;;14.75;63.66
46394;BME280;32099;53.588;10.176;2023-04-15T12:24:34;100828.97;;;14.66;66.53
46394;BME280;32099;53.588;10.176;2023-04-15T12:27:03;100837.22;;;14.66;66.58
46394;BME280;32099;53.588;10.176;2023-04-15T12:29:30;100837.19;;;14.59;65.32
46394;BME280;32099;53.588;10.176;2023-04-15T12:32:05;100841.19;;;14.57;67.25
46394;BME280;32099;53.588;10.176;2023-04-15T12:34:32;100845.41;;;14.53;66.19
46394;BME280;32099;53.588;10.176;2023-04-15T12:37:09;100841.81;;;14.59;65.29
46394;BME280;32099;53.588;10.176;2023-04-15T12:39:37;100844.38;;;14.60;65.62
46394;BME280;32099;53.588;10.176;2023-04-15T12:42:03;100849.00;;;14.60;66.59
46394;BME280;32099;53.588;10.176;2023-04-15T12:44:30;100850.28;;;14.57;65.05
46394;BME280;32099;53.588;10.176;2023-04-15T12:46:55;100853.19;;;14.42;62.98
46394;BME280;32099;53.588;10.176;2023-04-15T12:49:21;100855.06;;;14.35;65.49
46394;BME280;32099;53.588;10.176;2023-04-15T12:51:47;100863.72;;;14.39;65.59
46394;BME280;32099;53.588;10.176;2023-04-15T12:54:14;100853.59;;;14.39;65.30
46394;BME280;32099;53.588;10.176;2023-04-15T12:56:40;100860.38;;;14.43;64.48
46394;BME280;32099;53.588;10.176;2023-04-15T12:59:06;100859.53;;;14.49;64.71
46394;BME280;32099;53.588;10.176;2023-04-15T13:01:31;100857.66;;;14.57;65.46
46394;BME280;32099;53.588;10.176;2023-04-15T13:03:57;100865.50;;;14.66;66.34
46394;BME280;32099;53.588;10.176;2023-04-15T13:06:22;100867.66;;;14.78;65.47
46394;BME280;32099;53.588;10.176;2023-04-15T13:08:48;100870.66;;;14.83;64.06
46394;BME280;32099;53.588;10.176;2023-04-15T13:11:13;100867.25;;;14.81;63.78
46394;BME280;32099;53.588;10.176;2023-04-15T13:13:39;100864.28;;;14.76;63.84
46394;BME280;32099;53.588;10.176;2023-04-15T13:16:04;100868.72;;;14.77;64.08
46394;BME280;32099;53.588;10.176;2023-04-15T13:18:30;100864.50;;;14.74;64.48
46394;BME280;32099;53.588;10.176;2023-04-15T13:20:55;100868.09;;;14.81;63.95
46394;BME280;32099;53.588;10.176;2023-04-15T13:23:21;100884.56;;;14.81;60.86
46394;BME280;32099;53.588;10.176;2023-04-15T13:25:46;100879.69;;;14.77;61.31
46394;BME280;32099;53.588;10.176;2023-04-15T13:28:11;100885.19;;;14.77;63.00
46394;BME280;32099;53.588;10.176;2023-04-15T13:30:37;100879.94;;;14.89;64.11
46394;BME280;32099;53.588;10.176;2023-04-15T13:33:03;100883.13;;;15.06;61.23
46394;BME280;32099;53.588;10.176;2023-04-15T13:35:30;100879.13;;;15.15;63.34